Terminal Aerodrome Forecast
Issued by NWS

Current Version | Previous Version | Graphics & Text | Print | Product List | Glossary On
Versions: 1 2 3 4 5 6 7 8 9 10 11 12 13 14 15 16 17
000
FTUS41 KPBZ 270801 AAA
TAFMGW
TAF AMD
KMGW 270801Z 2708/2806 00000KT P6SM BKN035
     FM270900 00000KT 5SM BR BKN035
     FM271400 VRB03KT P6SM BKN035
     FM280000 VRB03KT P6SM SCT050=

USA.gov is the U.S. government's official web portal to all federal, state and local government web resources and services.